Time;durP1;ratioP1;P1;durP2;ratioP2;P2;SDS_P1;SDS_P2;PMS_P1;PMS_P2;Temp;Humidity;BMP_temperature;BMP_pressure;BME280_temperature;BME280_humidity;BME280_pressure;Samples;Min_cycle;Max_cycle;Signal;HPM_P1;HPM_P2
2023/04/16 00:01:11;;;;;;;20.40;11.70;;;;;;;;;;5017118;28;20447;-90
2023/04/16 00:03:37;;;;;;;15.53;11.13;;;;;;;;;;5020697;28;20503;-90
2023/04/16 00:06:03;;;;;;;16.30;12.40;;;;;;;;;;5008750;28;20475;-90
2023/04/16 00:08:29;;;;;;;18.57;11.20;;;;;;;;;;5018179;28;20447;-90
2023/04/16 00:10:55;;;;;;;21.10;13.13;;;;;;;;;;5028433;28;20519;-90
2023/04/16 00:13:21;;;;;;;15.90;11.90;;;;;;;;;;5023344;28;20431;-89
2023/04/16 00:15:47;;;;;;;20.63;12.70;;;;;;;;;;5017837;28;20927;-89
2023/04/16 00:18:13;;;;;;;20.97;11.47;;;;;;;;;;5031618;28;20491;-89
2023/04/16 00:20:39;;;;;;;20.33;12.50;;;;;;;;;;5019996;28;20457;-88
2023/04/16 00:23:05;;;;;;;14.13;11.20;;;;;;;;;;5012914;28;20448;-89
2023/04/16 00:25:31;;;;;;;17.00;11.60;;;;;;;;;;4997484;28;20522;-89
2023/04/16 00:28:00;;;;;;;18.23;12.57;;;;;;;;;;4995928;28;20539;-90
2023/04/16 00:30:29;;;;;;;17.30;12.70;;;;;;;;;;4984498;28;20495;-89
2023/04/16 00:32:55;;;;;;;18.73;12.23;;;;;;;;;;4981033;28;20436;-89
2023/04/16 00:35:21;;;;;;;16.00;11.60;;;;;;;;;;4987279;28;20494;-89
2023/04/16 00:37:50;;;;;;;19.20;12.30;;;;;;;;;;5015553;28;20423;-89
2023/04/16 00:40:16;;;;;;;15.73;10.97;;;;;;;;;;5001168;28;20530;-88
2023/04/16 00:42:42;;;;;;;18.07;9.70;;;;;;;;;;5021570;28;20431;-89
2023/04/16 00:45:09;;;;;;;16.83;11.60;;;;;;;;;;4997944;28;20460;-88
2023/04/16 00:47:38;;;;;;;18.20;11.30;;;;;;;;;;4980430;28;21102;-89
2023/04/16 00:50:04;;;;;;;18.00;12.40;;;;;;;;;;4980596;28;20433;-89
2023/04/16 00:52:33;;;;;;;17.40;11.10;;;;;;;;;;4979611;28;20442;-89
2023/04/16 00:54:59;;;;;;;19.63;12.77;;;;;;;;;;4997099;28;21063;-89
2023/04/16 00:57:25;;;;;;;18.43;11.87;;;;;;;;;;5008290;28;20470;-89
2023/04/16 00:59:51;;;;;;;16.37;12.43;;;;;;;;;;5010416;28;20526;-89
2023/04/16 01:02:17;;;;;;;17.73;11.90;;;;;;;;;;5013760;28;20943;-89
2023/04/16 01:04:43;;;;;;;19.27;11.60;;;;;;;;;;5032834;28;20526;-89
2023/04/16 01:07:10;;;;;;;17.37;11.70;;;;;;;;;;5020112;28;20451;-89
2023/04/16 01:09:36;;;;;;;18.17;12.20;;;;;;;;;;5019661;28;20988;-89
2023/04/16 01:12:02;;;;;;;14.80;10.90;;;;;;;;;;5026311;28;20602;-89
2023/04/16 01:14:28;;;;;;;16.70;10.13;;;;;;;;;;5019108;28;20432;-90
2023/04/16 01:16:54;;;;;;;15.80;10.10;;;;;;;;;;5018704;28;20966;-89
2023/04/16 01:19:23;;;;;;;17.47;10.53;;;;;;;;;;5025839;28;20481;-89
2023/04/16 01:21:49;;;;;;;15.67;9.80;;;;;;;;;;5002653;28;20440;-89
2023/04/16 01:24:15;;;;;;;11.67;9.60;;;;;;;;;;5021963;28;20510;-89
2023/04/16 01:26:41;;;;;;;13.50;10.57;;;;;;;;;;5026612;28;20447;-89
2023/04/16 01:29:10;;;;;;;15.13;9.60;;;;;;;;;;5030470;28;20474;-90
2023/04/16 01:31:36;;;;;;;13.30;10.57;;;;;;;;;;5022778;28;20440;-90
2023/04/16 01:34:02;;;;;;;15.77;9.43;;;;;;;;;;5033029;28;20498;-90
2023/04/16 01:36:28;;;;;;;14.10;10.57;;;;;;;;;;5024171;28;20990;-90
2023/04/16 01:38:54;;;;;;;13.20;8.20;;;;;;;;;;5021657;28;20424;-90
2023/04/16 01:41:20;;;;;;;13.03;8.63;;;;;;;;;;5002076;28;20444;-89
2023/04/16 01:43:46;;;;;;;14.90;10.53;;;;;;;;;;5019492;28;20412;-88
2023/04/16 01:46:19;;;;;;;15.33;10.70;;;;;;;;;;5018529;28;20448;-87
2023/04/16 01:48:46;;;;;;;11.93;8.73;;;;;;;;;;5025945;28;20452;-89
2023/04/16 01:51:13;;;;;;;14.33;10.17;;;;;;;;;;5027972;28;20460;-91
2023/04/16 01:53:39;;;;;;;18.07;10.27;;;;;;;;;;5017753;28;20435;-89
2023/04/16 01:56:09;;;;;;;15.70;10.60;;;;;;;;;;5022533;28;20844;-90
2023/04/16 01:58:35;;;;;;;11.53;9.10;;;;;;;;;;5010947;28;20874;-90
2023/04/16 02:01:01;;;;;;;13.37;9.17;;;;;;;;;;5031035;28;20427;-89
2023/04/16 02:03:27;;;;;;;14.90;10.30;;;;;;;;;;5013905;28;20427;-89
2023/04/16 02:05:53;;;;;;;11.87;8.80;;;;;;;;;;5017965;28;20430;-88
2023/04/16 02:08:19;;;;;;;13.90;8.47;;;;;;;;;;5036932;28;20419;-89
2023/04/16 02:10:48;;;;;;;16.07;9.30;;;;;;;;;;5016815;28;20462;-88
2023/04/16 02:13:15;;;;;;;14.50;10.13;;;;;;;;;;5014718;28;20435;-89
2023/04/16 02:15:44;;;;;;;15.77;9.33;;;;;;;;;;5015885;28;20431;-90
2023/04/16 02:18:10;;;;;;;14.60;9.93;;;;;;;;;;5028927;28;20494;-89
2023/04/16 02:20:39;;;;;;;14.60;9.93;;;;;;;;;;5015263;28;20428;-89
2023/04/16 02:23:05;;;;;;;18.43;11.00;;;;;;;;;;5012279;28;20460;-90
2023/04/16 02:25:31;;;;;;;14.90;10.70;;;;;;;;;;5019035;28;20510;-89
2023/04/16 02:27:57;;;;;;;13.40;9.47;;;;;;;;;;5005199;28;20447;-90
2023/04/16 02:30:24;;;;;;;15.60;10.53;;;;;;;;;;5012711;28;20440;-89
2023/04/16 02:32:50;;;;;;;14.90;8.67;;;;;;;;;;5016399;28;20436;-89
2023/04/16 02:35:17;;;;;;;20.20;11.50;;;;;;;;;;5015889;28;21020;-89
2023/04/16 02:37:43;;;;;;;13.83;9.60;;;;;;;;;;5027921;28;20499;-89
2023/04/16 02:40:10;;;;;;;16.97;9.57;;;;;;;;;;5014000;28;20436;-89
2023/04/16 02:42:37;;;;;;;16.53;10.97;;;;;;;;;;5005502;28;20493;-91
2023/04/16 02:45:03;;;;;;;17.03;9.33;;;;;;;;;;5024258;28;20485;-90
2023/04/16 02:47:29;;;;;;;16.90;11.10;;;;;;;;;;5026274;28;20416;-91
2023/04/16 02:49:55;;;;;;;15.43;9.60;;;;;;;;;;5009980;28;20967;-89
2023/04/16 02:52:21;;;;;;;14.37;9.60;;;;;;;;;;5014794;28;20463;-90
2023/04/16 02:54:47;;;;;;;18.57;11.27;;;;;;;;;;5015324;28;20809;-89
2023/04/16 02:57:13;;;;;;;14.17;7.40;;;;;;;;;;5014011;28;20443;-90
2023/04/16 02:59:39;;;;;;;14.77;10.60;;;;;;;;;;5009537;28;20419;-90
2023/04/16 03:02:05;;;;;;;13.47;8.57;;;;;;;;;;5010904;28;20828;-89
2023/04/16 03:04:32;;;;;;;17.77;11.13;;;;;;;;;;5017808;28;20431;-89
2023/04/16 03:06:58;;;;;;;17.57;10.33;;;;;;;;;;5025125;28;20979;-90
2023/04/16 03:09:24;;;;;;;13.13;8.93;;;;;;;;;;5015807;28;20436;-90
2023/04/16 03:11:50;;;;;;;17.23;9.87;;;;;;;;;;5015444;28;20516;-90
2023/04/16 03:14:16;;;;;;;16.50;10.30;;;;;;;;;;5018510;28;20897;-89
2023/04/16 03:16:42;;;;;;;14.87;10.40;;;;;;;;;;5025970;28;20443;-89
2023/04/16 03:19:08;;;;;;;21.03;10.53;;;;;;;;;;5033542;28;20447;-90
2023/04/16 03:21:34;;;;;;;20.63;12.23;;;;;;;;;;5017459;28;20440;-90
2023/04/16 03:24:00;;;;;;;19.70;10.37;;;;;;;;;;5022442;28;20433;-89
2023/04/16 03:26:26;;;;;;;14.47;10.60;;;;;;;;;;5021784;28;20493;-89
2023/04/16 03:28:52;;;;;;;17.30;11.10;;;;;;;;;;5034276;28;20518;-89
2023/04/16 03:31:18;;;;;;;21.07;11.40;;;;;;;;;;5016844;28;20574;-89
2023/04/16 03:33:44;;;;;;;21.30;12.13;;;;;;;;;;5020278;28;20442;-89
2023/04/16 03:36:10;;;;;;;22.10;11.47;;;;;;;;;;5020490;28;20493;-88
2023/04/16 03:38:36;;;;;;;21.20;11.90;;;;;;;;;;5019233;28;20464;-91
2023/04/16 03:41:02;;;;;;;22.67;11.53;;;;;;;;;;5018051;28;20499;-89
2023/04/16 03:43:28;;;;;;;18.53;12.67;;;;;;;;;;5036034;28;20439;-88
2023/04/16 03:45:54;;;;;;;18.27;10.23;;;;;;;;;;5018352;28;20732;-88
2023/04/16 03:48:20;;;;;;;18.60;11.67;;;;;;;;;;5032962;28;20897;-90
2023/04/16 03:50:47;;;;;;;17.37;10.37;;;;;;;;;;5023477;28;20830;-90
2023/04/16 03:53:13;;;;;;;19.73;10.50;;;;;;;;;;5020740;28;20435;-90
2023/04/16 03:55:39;;;;;;;16.17;9.90;;;;;;;;;;5018163;28;20433;-88
2023/04/16 03:58:05;;;;;;;17.30;10.80;;;;;;;;;;5017964;28;20601;-88
2023/04/16 04:00:31;;;;;;;21.70;10.60;;;;;;;;;;5016307;28;20443;-87
2023/04/16 04:02:57;;;;;;;23.27;12.00;;;;;;;;;;4994122;28;20474;-88
2023/04/16 04:05:23;;;;;;;17.97;9.70;;;;;;;;;;5001996;28;20443;-89
2023/04/16 04:07:49;;;;;;;20.40;12.80;;;;;;;;;;5019695;28;20498;-88
2023/04/16 04:10:15;;;;;;;18.30;9.70;;;;;;;;;;5016327;28;20504;-88
2023/04/16 04:12:41;;;;;;;18.70;11.47;;;;;;;;;;5012382;28;20435;-88
2023/04/16 04:15:08;;;;;;;21.87;12.67;;;;;;;;;;5016037;28;20435;-88
2023/04/16 04:17:34;;;;;;;14.90;9.37;;;;;;;;;;4996229;28;20428;-88
2023/04/16 04:20:00;;;;;;;17.70;10.37;;;;;;;;;;5015472;28;21020;-88
2023/04/16 04:22:26;;;;;;;14.70;9.43;;;;;;;;;;5010284;28;20743;-88
2023/04/16 04:24:52;;;;;;;17.20;10.10;;;;;;;;;;5005006;28;20436;-89
2023/04/16 04:27:18;;;;;;;11.13;8.47;;;;;;;;;;5023570;28;21112;-87
2023/04/16 04:29:44;;;;;;;18.07;10.20;;;;;;;;;;5030795;28;20439;-87
2023/04/16 04:32:10;;;;;;;14.53;10.13;;;;;;;;;;5015262;28;20547;-87
2023/04/16 04:34:36;;;;;;;13.30;8.27;;;;;;;;;;5013261;28;20459;-88
2023/04/16 04:37:02;;;;;;;20.90;11.03;;;;;;;;;;5010255;28;20452;-89
2023/04/16 04:39:28;;;;;;;20.50;10.77;;;;;;;;;;5022013;28;20522;-88
2023/04/16 04:41:54;;;;;;;19.37;10.50;;;;;;;;;;5015306;28;20451;-87
2023/04/16 04:44:20;;;;;;;14.57;9.17;;;;;;;;;;5015998;28;20432;-88
2023/04/16 04:46:46;;;;;;;18.50;8.70;;;;;;;;;;5012415;28;20448;-88
2023/04/16 04:49:12;;;;;;;20.80;10.77;;;;;;;;;;5015645;28;20459;-88
2023/04/16 04:51:38;;;;;;;19.10;10.20;;;;;;;;;;5016789;28;20829;-88
2023/04/16 04:54:04;;;;;;;23.20;11.37;;;;;;;;;;5017110;28;20419;-86
2023/04/16 04:56:30;;;;;;;12.57;6.80;;;;;;;;;;5023738;28;20423;-87
2023/04/16 04:58:56;;;;;;;18.67;10.70;;;;;;;;;;5025472;28;20435;-88
2023/04/16 05:01:22;;;;;;;16.90;10.87;;;;;;;;;;5034710;28;20443;-89
2023/04/16 05:03:48;;;;;;;17.40;10.07;;;;;;;;;;5012216;28;20671;-89
2023/04/16 05:06:15;;;;;;;19.33;11.27;;;;;;;;;;5017066;28;20527;-87
2023/04/16 05:08:41;;;;;;;19.73;9.80;;;;;;;;;;5012739;28;20444;-88
2023/04/16 05:11:07;;;;;;;22.10;10.63;;;;;;;;;;5013580;28;20538;-88
2023/04/16 05:13:33;;;;;;;18.93;10.87;;;;;;;;;;5013971;28;20855;-88
2023/04/16 05:15:59;;;;;;;18.47;9.23;;;;;;;;;;5010368;28;20519;-88
2023/04/16 05:18:25;;;;;;;21.17;10.80;;;;;;;;;;5016853;28;20545;-88
2023/04/16 05:20:51;;;;;;;25.23;10.47;;;;;;;;;;5014874;28;20487;-88
2023/04/16 05:23:17;;;;;;;21.77;12.20;;;;;;;;;;5014965;28;20438;-88
2023/04/16 05:25:43;;;;;;;25.97;15.03;;;;;;;;;;5008030;28;21205;-88
2023/04/16 05:28:09;;;;;;;21.03;12.03;;;;;;;;;;5015958;28;20431;-88
2023/04/16 05:30:36;;;;;;;21.00;10.80;;;;;;;;;;5027502;28;20467;-87
2023/04/16 05:33:01;;;;;;;26.97;15.27;;;;;;;;;;5015197;28;20443;-89
2023/04/16 05:35:27;;;;;;;29.40;16.57;;;;;;;;;;5029983;28;20577;-87
2023/04/16 05:37:53;;;;;;;29.93;14.90;;;;;;;;;;5014605;28;20435;-88
2023/04/16 05:40:20;;;;;;;33.87;16.33;;;;;;;;;;5030668;28;20514;-87
2023/04/16 05:42:46;;;;;;;37.27;17.93;;;;;;;;;;5011821;28;20971;-88
2023/04/16 05:45:12;;;;;;;27.53;15.87;;;;;;;;;;5021591;28;20453;-88
2023/04/16 05:47:38;;;;;;;35.70;18.00;;;;;;;;;;5022765;28;20442;-89
2023/04/16 05:50:04;;;;;;;33.17;19.00;;;;;;;;;;5013082;28;21006;-88
2023/04/16 05:52:30;;;;;;;30.13;15.57;;;;;;;;;;5015669;28;20462;-87
2023/04/16 05:54:56;;;;;;;42.43;19.50;;;;;;;;;;5016408;28;20502;-88
2023/04/16 05:57:22;;;;;;;30.90;17.00;;;;;;;;;;5020108;28;20511;-88
2023/04/16 05:59:48;;;;;;;33.23;19.43;;;;;;;;;;5021651;28;20522;-88
2023/04/16 06:02:14;;;;;;;43.53;21.93;;;;;;;;;;5017660;28;20440;-88
2023/04/16 06:04:41;;;;;;;43.40;20.60;;;;;;;;;;5014979;28;20446;-88
2023/04/16 06:07:07;;;;;;;40.70;20.47;;;;;;;;;;5009852;28;20486;-88
2023/04/16 06:09:33;;;;;;;38.27;20.17;;;;;;;;;;5015169;28;20432;-87
2023/04/16 06:11:59;;;;;;;40.60;18.80;;;;;;;;;;5014460;28;20997;-88
2023/04/16 06:14:25;;;;;;;40.27;18.17;;;;;;;;;;5017659;28;20443;-88
2023/04/16 06:16:51;;;;;;;49.50;22.63;;;;;;;;;;5022532;28;20436;-88
2023/04/16 06:19:17;;;;;;;43.30;24.07;;;;;;;;;;5023430;28;20488;-86
2023/04/16 06:21:44;;;;;;;37.00;18.43;;;;;;;;;;5011964;28;20435;-87
2023/04/16 06:24:10;;;;;;;39.40;18.77;;;;;;;;;;5008466;28;21280;-87
2023/04/16 06:26:36;;;;;;;42.33;18.37;;;;;;;;;;5032527;28;21001;-87
2023/04/16 06:29:02;;;;;;;43.90;20.73;;;;;;;;;;5011969;28;20474;-88
2023/04/16 06:31:28;;;;;;;38.90;19.80;;;;;;;;;;5027681;28;20468;-88
2023/04/16 06:33:54;;;;;;;42.17;20.43;;;;;;;;;;5012245;28;20463;-88
2023/04/16 06:36:20;;;;;;;40.37;19.60;;;;;;;;;;5033621;28;20927;-87
2023/04/16 06:38:46;;;;;;;45.27;20.40;;;;;;;;;;5017645;28;20516;-88
2023/04/16 06:41:13;;;;;;;49.50;26.80;;;;;;;;;;5013211;28;20428;-86
2023/04/16 06:43:39;;;;;;;46.10;20.70;;;;;;;;;;5019050;28;21014;-87
2023/04/16 06:46:05;;;;;;;51.30;22.50;;;;;;;;;;5009646;28;20475;-87
2023/04/16 06:48:31;;;;;;;44.73;22.23;;;;;;;;;;5028218;28;20457;-88
2023/04/16 06:50:57;;;;;;;41.83;20.90;;;;;;;;;;5012342;28;20469;-88
2023/04/16 06:53:23;;;;;;;49.17;22.20;;;;;;;;;;5006049;28;20459;-88
2023/04/16 06:55:49;;;;;;;49.47;23.00;;;;;;;;;;5013730;28;20444;-88
2023/04/16 06:58:15;;;;;;;44.50;22.30;;;;;;;;;;5012028;28;20598;-90
2023/04/16 07:00:41;;;;;;;47.27;21.60;;;;;;;;;;5025190;28;20435;-88
2023/04/16 07:03:07;;;;;;;44.77;20.77;;;;;;;;;;5024477;28;20445;-87
2023/04/16 07:05:33;;;;;;;46.97;21.27;;;;;;;;;;5011867;28;20501;-87
2023/04/16 07:07:59;;;;;;;40.87;20.43;;;;;;;;;;5014289;28;20443;-88
2023/04/16 07:10:25;;;;;;;42.53;23.00;;;;;;;;;;5016627;28;20466;-88
2023/04/16 07:12:51;;;;;;;39.07;19.37;;;;;;;;;;5019409;28;20439;-88
2023/04/16 07:15:17;;;;;;;37.97;20.37;;;;;;;;;;5015116;28;20431;-87
2023/04/16 07:17:43;;;;;;;42.93;21.00;;;;;;;;;;5013987;28;20447;-88
2023/04/16 07:20:10;;;;;;;35.60;19.37;;;;;;;;;;5014817;28;20439;-88
2023/04/16 07:22:36;;;;;;;39.00;18.67;;;;;;;;;;5037589;28;20505;-88
2023/04/16 07:25:31;;;;;;;38.60;19.97;;;;;;;;;;5016668;28;20543;-89
2023/04/16 07:28:03;;;;;;;38.97;18.80;;;;;;;;;;4981959;28;20424;-91
2023/04/16 07:30:33;;;;;;;35.80;15.93;;;;;;;;;;5038500;28;20447;-93
2023/04/16 07:33:03;;;;;;;33.17;17.97;;;;;;;;;;5023506;28;20513;-90
2023/04/16 07:35:31;;;;;;;40.43;18.07;;;;;;;;;;5025812;28;20462;-91
2023/04/16 07:38:06;;;;;;;35.00;17.93;;;;;;;;;;5030735;28;20507;-90
2023/04/16 07:40:55;;;;;;;27.47;17.37;;;;;;;;;;5025877;28;20447;-91
2023/04/16 07:43:24;;;;;;;35.47;21.03;;;;;;;;;;5032756;28;20590;-90
2023/04/16 07:45:51;;;;;;;35.23;17.23;;;;;;;;;;5010193;28;20942;-92
2023/04/16 07:48:20;;;;;;;31.20;17.43;;;;;;;;;;5034895;28;20442;-94
2023/04/16 07:50:53;;;;;;;29.43;18.43;;;;;;;;;;5028860;28;20958;-93
2023/04/16 07:53:30;;;;;;;32.60;16.40;;;;;;;;;;5023030;28;20491;-94
2023/04/16 07:56:00;;;;;;;34.43;16.87;;;;;;;;;;5029547;28;20430;-93
2023/04/16 07:58:51;;;;;;;24.30;14.03;;;;;;;;;;5029535;28;20435;-93
2023/04/16 08:01:17;;;;;;;33.00;17.77;;;;;;;;;;5030734;28;20430;-90
2023/04/16 08:03:45;;;;;;;32.47;16.40;;;;;;;;;;5024712;28;20951;-91
2023/04/16 08:06:12;;;;;;;25.43;16.17;;;;;;;;;;5041824;28;20455;-95
2023/04/16 08:08:39;;;;;;;31.60;16.00;;;;;;;;;;5029622;28;20511;-95
2023/04/16 08:11:05;;;;;;;30.03;15.37;;;;;;;;;;5041885;28;20466;-94
2023/04/16 08:13:32;;;;;;;24.83;15.63;;;;;;;;;;5031411;28;20454;-93
2023/04/16 08:15:58;;;;;;;26.33;16.37;;;;;;;;;;5030443;28;20454;-94
2023/04/16 08:18:25;;;;;;;27.80;17.20;;;;;;;;;;5025303;28;20431;-91
2023/04/16 08:20:56;;;;;;;25.60;14.87;;;;;;;;;;4999838;28;20420;-92
2023/04/16 08:23:29;;;;;;;25.47;15.23;;;;;;;;;;5011341;28;20479;-93
2023/04/16 08:25:55;;;;;;;26.87;15.07;;;;;;;;;;5004912;28;20439;-92
2023/04/16 08:28:22;;;;;;;30.40;16.30;;;;;;;;;;4989614;28;20428;-96
2023/04/16 08:30:48;;;;;;;25.43;15.40;;;;;;;;;;5007751;28;20555;-91
2023/04/16 08:33:14;;;;;;;27.93;15.67;;;;;;;;;;5005301;28;20446;-93
2023/04/16 08:35:43;;;;;;;29.13;17.63;;;;;;;;;;4990388;28;20480;-94
2023/04/16 08:43:19;;;;;;;23.90;14.07;;;;;;;;;;5000490;28;20493;-95
2023/04/16 08:45:46;;;;;;;23.13;13.40;;;;;;;;;;4984356;28;20492;-91
2023/04/16 08:48:19;;;;;;;17.33;12.00;;;;;;;;;;4967355;28;20529;-95
2023/04/16 08:50:45;;;;;;;22.97;14.40;;;;;;;;;;4969359;28;20466;-91
2023/04/16 08:53:20;;;;;;;23.20;14.97;;;;;;;;;;4950493;28;20547;-91
2023/04/16 08:55:47;;;;;;;24.73;15.20;;;;;;;;;;4954287;28;21004;-94
2023/04/16 08:58:19;;;;;;;19.30;13.57;;;;;;;;;;4971662;28;20457;-93
2023/04/16 09:00:45;;;;;;;20.10;13.83;;;;;;;;;;4967659;28;20540;-94
2023/04/16 09:03:12;;;;;;;25.67;14.87;;;;;;;;;;4968005;28;20434;-91
2023/04/16 09:05:39;;;;;;;25.13;14.40;;;;;;;;;;4985819;28;20482;-94
2023/04/16 09:08:05;;;;;;;20.03;12.83;;;;;;;;;;4967680;28;20434;-94
2023/04/16 09:10:31;;;;;;;18.80;13.43;;;;;;;;;;4966992;28;20808;-94
2023/04/16 09:12:57;;;;;;;20.33;13.10;;;;;;;;;;4964375;28;20445;-93
2023/04/16 09:15:24;;;;;;;22.33;14.00;;;;;;;;;;4963483;28;20551;-93
2023/04/16 09:17:51;;;;;;;20.23;13.83;;;;;;;;;;4980583;28;20477;-96
2023/04/16 09:20:20;;;;;;;23.10;13.23;;;;;;;;;;4983167;28;21040;-92
2023/04/16 09:22:46;;;;;;;20.80;12.60;;;;;;;;;;4982070;28;20456;-92
2023/04/16 09:25:16;;;;;;;22.63;12.93;;;;;;;;;;4982583;28;20445;-94
2023/04/16 09:27:42;;;;;;;25.70;12.43;;;;;;;;;;4988865;28;20445;-95
2023/04/16 09:30:22;;;;;;;19.57;12.20;;;;;;;;;;4961609;28;20537;-95
2023/04/16 09:32:48;;;;;;;19.80;12.67;;;;;;;;;;4949697;28;20478;-94
2023/04/16 09:35:15;;;;;;;23.63;13.33;;;;;;;;;;4940670;28;20462;-92
2023/04/16 09:37:41;;;;;;;25.37;14.70;;;;;;;;;;4940842;28;20532;-96
2023/04/16 09:40:07;;;;;;;20.53;11.93;;;;;;;;;;4934790;29;21239;-94
2023/04/16 09:42:35;;;;;;;26.30;12.97;;;;;;;;;;4937327;28;20453;-93
2023/04/16 09:45:01;;;;;;;17.73;12.67;;;;;;;;;;4940069;29;20462;-94
2023/04/16 09:47:40;;;;;;;22.50;13.20;;;;;;;;;;4952355;28;21018;-94
2023/04/16 09:50:07;;;;;;;20.27;13.80;;;;;;;;;;4940932;29;20438;-93
2023/04/16 09:52:34;;;;;;;19.93;11.93;;;;;;;;;;4972665;28;20469;-94
2023/04/16 09:55:00;;;;;;;20.33;12.30;;;;;;;;;;4968468;28;20446;-93
2023/04/16 09:57:26;;;;;;;20.40;12.50;;;;;;;;;;4975699;28;20441;-94
2023/04/16 09:59:53;;;;;;;21.07;11.57;;;;;;;;;;4976619;28;21130;-94
2023/04/16 10:02:19;;;;;;;20.90;12.80;;;;;;;;;;4978969;28;20508;-93
2023/04/16 10:04:52;;;;;;;23.57;14.40;;;;;;;;;;4976506;28;20438;-92
2023/04/16 10:07:18;;;;;;;22.23;12.40;;;;;;;;;;4967081;28;20439;-91
2023/04/16 10:09:44;;;;;;;17.07;11.90;;;;;;;;;;4981329;28;20856;-94
2023/04/16 10:12:13;;;;;;;23.30;12.40;;;;;;;;;;4987135;28;20457;-94
2023/04/16 10:14:42;;;;;;;23.07;14.90;;;;;;;;;;5002848;28;20437;-91
2023/04/16 10:17:09;;;;;;;24.40;14.20;;;;;;;;;;5004619;28;20961;-92
2023/04/16 10:19:35;;;;;;;23.50;13.07;;;;;;;;;;4987534;28;20425;-93
2023/04/16 10:22:05;;;;;;;22.13;15.33;;;;;;;;;;4983493;28;20452;-94
2023/04/16 10:24:34;;;;;;;20.00;13.13;;;;;;;;;;4999453;28;20526;-92
2023/04/16 10:27:01;;;;;;;25.37;14.00;;;;;;;;;;4996154;28;20484;-91
2023/04/16 10:29:27;;;;;;;29.30;17.80;;;;;;;;;;4975864;28;20517;-94
2023/04/16 10:31:53;;;;;;;19.30;12.77;;;;;;;;;;4980190;28;20457;-94
2023/04/16 10:34:20;;;;;;;17.87;11.23;;;;;;;;;;4979893;28;20437;-92
2023/04/16 10:36:51;;;;;;;18.60;11.93;;;;;;;;;;4979930;28;20448;-92
2023/04/16 10:39:18;;;;;;;19.40;11.10;;;;;;;;;;4978636;28;20436;-93
2023/04/16 10:41:44;;;;;;;20.57;11.90;;;;;;;;;;4979648;28;20433;-95
2023/04/16 10:44:10;;;;;;;20.17;11.50;;;;;;;;;;4980560;28;20464;-93
2023/04/16 10:46:43;;;;;;;19.57;12.67;;;;;;;;;;4995661;28;20444;-93
2023/04/16 10:49:12;;;;;;;22.07;13.57;;;;;;;;;;4991894;28;20971;-91
2023/04/16 10:51:38;;;;;;;19.80;13.33;;;;;;;;;;4995428;28;20968;-92
2023/04/16 10:54:18;;;;;;;21.23;11.60;;;;;;;;;;4975146;28;20472;-95
2023/04/16 10:56:45;;;;;;;22.57;13.63;;;;;;;;;;4975669;28;20432;-94
2023/04/16 10:59:11;;;;;;;21.00;12.23;;;;;;;;;;4973643;28;20444;-93
2023/04/16 11:01:44;;;;;;;16.77;11.10;;;;;;;;;;4979086;28;20456;-94
2023/04/16 11:04:19;;;;;;;17.37;10.07;;;;;;;;;;4990754;28;20556;-94
2023/04/16 11:07:04;;;;;;;20.87;12.50;;;;;;;;;;4992732;28;20439;-91
2023/04/16 11:09:49;;;;;;;19.47;11.43;;;;;;;;;;4975999;28;20441;-94
2023/04/16 11:12:17;;;;;;;16.80;8.80;;;;;;;;;;5001689;28;20565;-96
2023/04/16 11:14:44;;;;;;;14.43;10.00;;;;;;;;;;4996591;28;20441;-90
2023/04/16 11:17:10;;;;;;;23.20;12.10;;;;;;;;;;4974819;28;20438;-94
2023/04/16 11:19:37;;;;;;;13.70;9.40;;;;;;;;;;4984447;28;20443;-93
2023/04/16 11:22:03;;;;;;;16.33;11.00;;;;;;;;;;4985971;28;20504;-91
2023/04/16 11:24:29;;;;;;;15.83;9.13;;;;;;;;;;4977472;28;20469;-93
2023/04/16 11:26:56;;;;;;;12.03;9.20;;;;;;;;;;4970456;28;20434;-90
2023/04/16 11:29:21;;;;;;;11.43;7.90;;;;;;;;;;4965202;28;20473;-95
2023/04/16 11:31:53;;;;;;;13.20;8.70;;;;;;;;;;4968087;28;20472;-96
2023/04/16 11:34:19;;;;;;;10.60;8.23;;;;;;;;;;4973476;28;20444;-96
2023/04/16 11:36:49;;;;;;;13.87;8.53;;;;;;;;;;4973568;28;20437;-91
2023/04/16 11:39:15;;;;;;;15.33;8.17;;;;;;;;;;4983763;28;21946;-92
2023/04/16 11:41:47;;;;;;;15.20;8.27;;;;;;;;;;4968720;28;20453;-94
2023/04/16 11:44:23;;;;;;;10.67;6.50;;;;;;;;;;4969346;28;20445;-92
2023/04/16 11:46:49;;;;;;;13.60;7.20;;;;;;;;;;4981786;28;21067;-94
2023/04/16 11:49:16;;;;;;;8.70;6.00;;;;;;;;;;4973584;28;20456;-93
2023/04/16 11:54:50;;;;;;;14.27;7.07;;;;;;;;;;4953291;28;20430;-89
2023/04/16 12:13:46;;;;;;;7.13;4.13;;;;;;;;;;4924022;29;20432;-93
2023/04/16 12:16:16;;;;;;;6.17;5.40;;;;;;;;;;4897421;29;20511;-89
2023/04/16 12:18:57;;;;;;;7.87;5.17;;;;;;;;;;4913234;29;20425;-95
2023/04/16 12:21:26;;;;;;;8.23;5.50;;;;;;;;;;4916205;29;20913;-94
2023/04/16 12:23:55;;;;;;;9.40;5.87;;;;;;;;;;4906961;29;20861;-92
2023/04/16 12:26:21;;;;;;;8.37;6.33;;;;;;;;;;4884059;29;20422;-95
2023/04/16 12:28:47;;;;;;;6.83;4.53;;;;;;;;;;4884100;29;20973;-90
2023/04/16 12:31:14;;;;;;;7.63;5.10;;;;;;;;;;4903139;29;20469;-94
2023/04/16 12:33:41;;;;;;;8.47;5.20;;;;;;;;;;4869583;29;20441;-96
2023/04/16 12:36:20;;;;;;;4.90;4.10;;;;;;;;;;4883156;29;20460;-92
2023/04/16 12:38:46;;;;;;;7.07;4.90;;;;;;;;;;4888111;29;20427;-92
2023/04/16 12:41:12;;;;;;;8.00;5.47;;;;;;;;;;4892282;29;20474;-94
2023/04/16 12:43:38;;;;;;;8.17;5.10;;;;;;;;;;4891008;28;20451;-93
2023/04/16 12:46:05;;;;;;;10.10;6.10;;;;;;;;;;4927152;29;20565;-95
2023/04/16 12:48:32;;;;;;;10.37;5.40;;;;;;;;;;4931418;29;20439;-93
2023/04/16 12:50:58;;;;;;;8.47;5.17;;;;;;;;;;4959862;28;20494;-94
2023/04/16 12:53:24;;;;;;;6.67;4.93;;;;;;;;;;4967339;28;20818;-94
2023/04/16 12:55:53;;;;;;;9.77;6.70;;;;;;;;;;4966985;28;20444;-93
2023/04/16 12:58:19;;;;;;;9.77;6.53;;;;;;;;;;4975890;28;20417;-92
2023/04/16 13:00:45;;;;;;;9.70;5.43;;;;;;;;;;5004014;28;20432;-95
2023/04/16 13:03:11;;;;;;;8.07;5.20;;;;;;;;;;4979068;28;20437;-93
2023/04/16 13:05:37;;;;;;;8.83;5.87;;;;;;;;;;4981972;28;20472;-95
2023/04/16 13:08:03;;;;;;;11.77;6.77;;;;;;;;;;4982362;28;20425;-90
2023/04/16 13:10:29;;;;;;;8.17;6.00;;;;;;;;;;4977073;28;20504;-93
2023/04/16 13:12:55;;;;;;;8.10;5.27;;;;;;;;;;4965164;28;20464;-92
2023/04/16 13:15:21;;;;;;;10.63;5.47;;;;;;;;;;4972480;28;20425;-93
2023/04/16 13:17:48;;;;;;;11.30;6.07;;;;;;;;;;4962895;28;20437;-95
2023/04/16 13:20:14;;;;;;;10.20;6.33;;;;;;;;;;4941581;29;20454;-94
2023/04/16 13:22:40;;;;;;;12.57;6.53;;;;;;;;;;4944064;29;20427;-93
2023/04/16 13:25:06;;;;;;;13.10;6.57;;;;;;;;;;4934212;29;20443;-96
2023/04/16 13:27:32;;;;;;;9.27;6.73;;;;;;;;;;4945927;29;20923;-93
2023/04/16 13:29:59;;;;;;;13.03;6.47;;;;;;;;;;4942002;29;20847;-92
2023/04/16 13:32:25;;;;;;;9.53;6.90;;;;;;;;;;4959214;28;20526;-94
2023/04/16 13:34:51;;;;;;;15.10;8.90;;;;;;;;;;4944960;29;20476;-93
2023/04/16 13:37:17;;;;;;;10.87;6.73;;;;;;;;;;4943908;29;20415;-93
2023/04/16 13:39:44;;;;;;;12.10;7.30;;;;;;;;;;4928385;29;20422;-90
2023/04/16 13:42:11;;;;;;;10.73;7.20;;;;;;;;;;4970881;28;20541;-89
2023/04/16 13:44:37;;;;;;;9.93;7.23;;;;;;;;;;4954998;28;20469;-92
2023/04/16 13:47:03;;;;;;;9.80;7.00;;;;;;;;;;4957967;28;20996;-94
2023/04/16 13:49:29;;;;;;;8.93;6.47;;;;;;;;;;4960677;28;20464;-92
2023/04/16 13:51:55;;;;;;;8.13;5.73;;;;;;;;;;4993153;28;20461;-90
2023/04/16 13:54:21;;;;;;;10.17;6.90;;;;;;;;;;4975156;28;20455;-92
2023/04/16 13:56:48;;;;;;;7.63;6.00;;;;;;;;;;4972457;28;20967;-93
2023/04/16 13:59:15;;;;;;;12.27;9.23;;;;;;;;;;4977961;28;20448;-91
2023/04/16 14:01:41;;;;;;;10.23;7.53;;;;;;;;;;4989037;28;20449;-92
2023/04/16 14:04:07;;;;;;;10.00;7.20;;;;;;;;;;4968908;28;20433;-92
2023/04/16 14:06:33;;;;;;;9.20;6.93;;;;;;;;;;4973308;28;20450;-92
2023/04/16 14:09:00;;;;;;;10.70;7.60;;;;;;;;;;4991595;28;21216;-95
2023/04/16 14:11:26;;;;;;;15.63;9.07;;;;;;;;;;4973769;28;20457;-95
2023/04/16 14:13:52;;;;;;;11.17;7.23;;;;;;;;;;4977894;28;20429;-90
2023/04/16 14:16:18;;;;;;;13.57;8.67;;;;;;;;;;4979032;28;20493;-92
2023/04/16 14:18:44;;;;;;;13.17;9.37;;;;;;;;;;4994564;28;20433;-94
2023/04/16 14:21:10;;;;;;;15.10;9.27;;;;;;;;;;4975911;28;20438;-93
2023/04/16 14:23:36;;;;;;;11.60;8.93;;;;;;;;;;4976934;28;20972;-92
2023/04/16 14:26:02;;;;;;;11.90;7.83;;;;;;;;;;4975270;28;20460;-94
2023/04/16 14:28:28;;;;;;;15.20;10.10;;;;;;;;;;4976791;28;20943;-96
2023/04/16 14:30:54;;;;;;;15.13;9.10;;;;;;;;;;4981272;28;20464;-95
2023/04/16 14:33:20;;;;;;;12.90;8.13;;;;;;;;;;4980420;28;20424;-94
2023/04/16 14:35:46;;;;;;;13.07;8.97;;;;;;;;;;4980497;28;20993;-95
2023/04/16 14:38:12;;;;;;;16.13;9.40;;;;;;;;;;4984474;28;20437;-95
2023/04/16 14:40:38;;;;;;;16.53;10.57;;;;;;;;;;4981993;28;20438;-95
2023/04/16 14:43:04;;;;;;;11.50;9.10;;;;;;;;;;4980442;28;20459;-92
2023/04/16 14:45:31;;;;;;;17.30;10.93;;;;;;;;;;4982614;28;21035;-94